Aviation Digital Data Service (ADDS)

Output produced by METARs form (1548 UTC 15 December 2017)
found at http://aviationweather.gov/adds/metars/
 
KAEX 151453Z 35006KT 10SM CLR 06/M01 A3028 RMK AO2 SLP259 T00561011 53035